Time;durP1;ratioP1;P1;durP2;ratioP2;P2;SDS_P1;SDS_P2;PMS_P1;PMS_P2;Temp;Humidity;BMP_temperature;BMP_pressure;BME280_temperature;BME280_humidity;BME280_pressure;Samples;Min_cycle;Max_cycle;Signal;HPM_P1;HPM_P2
2024/03/22 00:01:59;;;;;;;54.55;35.22;;;;;;;;;;5104140;28;20087;-40
2024/03/22 00:04:26;;;;;;;51.95;35.30;;;;;;;;;;5102767;28;20059;-41
2024/03/22 00:06:53;;;;;;;53.33;36.13;;;;;;;;;;5104188;28;20031;-46
2024/03/22 00:09:19;;;;;;;51.15;36.47;;;;;;;;;;5104612;28;20074;-43
2024/03/22 00:11:46;;;;;;;65.63;45.35;;;;;;;;;;5104044;28;20019;-44
2024/03/22 00:14:13;;;;;;;74.28;53.20;;;;;;;;;;5104415;28;20036;-45
2024/03/22 00:16:39;;;;;;;64.30;46.75;;;;;;;;;;5103995;28;20362;-42
2024/03/22 00:19:06;;;;;;;60.58;43.70;;;;;;;;;;5104102;28;20024;-40
2024/03/22 00:21:33;;;;;;;57.08;39.65;;;;;;;;;;5103943;28;20307;-41
2024/03/22 00:24:01;;;;;;;49.75;38.60;;;;;;;;;;5104374;28;20074;-39
2024/03/22 00:26:27;;;;;;;53.47;35.15;;;;;;;;;;5103933;28;20192;-45
2024/03/22 00:28:54;;;;;;;43.17;32.83;;;;;;;;;;5104170;28;20105;-46
2024/03/22 00:31:20;;;;;;;42.40;32.35;;;;;;;;;;5103861;28;20049;-41
2024/03/22 00:33:47;;;;;;;41.53;31.40;;;;;;;;;;5103796;28;20043;-40
2024/03/22 00:36:14;;;;;;;45.88;30.88;;;;;;;;;;5103643;28;20047;-42
2024/03/22 00:38:40;;;;;;;66.57;30.45;;;;;;;;;;5104158;28;20032;-44
2024/03/22 00:41:07;;;;;;;43.75;28.67;;;;;;;;;;5103817;28;20020;-44
2024/03/22 00:43:33;;;;;;;42.45;29.77;;;;;;;;;;5103831;28;20044;-46
2024/03/22 00:46:01;;;;;;;46.95;28.10;;;;;;;;;;5103703;28;20008;-40
2024/03/22 00:48:27;;;;;;;44.25;27.00;;;;;;;;;;5103938;28;20050;-50
2024/03/22 00:50:54;;;;;;;45.03;28.25;;;;;;;;;;5103637;28;20016;-41
2024/03/22 00:53:21;;;;;;;42.72;27.35;;;;;;;;;;5103840;28;20043;-48
2024/03/22 00:55:50;;;;;;;33.70;26.20;;;;;;;;;;5103919;28;20203;-39
2024/03/22 00:58:18;;;;;;;36.13;25.80;;;;;;;;;;5103772;28;20031;-50
2024/03/22 01:00:45;;;;;;;38.95;26.63;;;;;;;;;;5103922;28;20016;-42
2024/03/22 01:03:12;;;;;;;42.58;26.13;;;;;;;;;;5103842;28;20028;-44
2024/03/22 01:05:39;;;;;;;37.47;26.25;;;;;;;;;;5103584;28;20334;-41
2024/03/22 01:08:06;;;;;;;36.72;24.75;;;;;;;;;;5103853;28;20032;-43
2024/03/22 01:10:34;;;;;;;41.05;25.50;;;;;;;;;;5105846;28;20016;-41
2024/03/22 01:13:00;;;;;;;37.80;26.13;;;;;;;;;;5107538;28;20039;-42
2024/03/22 01:15:27;;;;;;;37.00;24.70;;;;;;;;;;5107411;28;20066;-46
2024/03/22 01:17:54;;;;;;;38.28;24.67;;;;;;;;;;5107550;28;20031;-41
2024/03/22 01:20:20;;;;;;;33.45;24.42;;;;;;;;;;5107193;28;20016;-39
2024/03/22 01:22:47;;;;;;;33.30;23.75;;;;;;;;;;5107400;28;20031;-44
2024/03/22 01:25:14;;;;;;;38.90;24.67;;;;;;;;;;5107120;28;20043;-43
2024/03/22 01:27:41;;;;;;;31.92;23.92;;;;;;;;;;5107104;28;20032;-45
2024/03/22 01:30:08;;;;;;;38.40;24.42;;;;;;;;;;5107126;28;20024;-50
2024/03/22 01:32:35;;;;;;;32.53;23.45;;;;;;;;;;5106968;28;20065;-45
2024/03/22 01:35:02;;;;;;;36.75;24.85;;;;;;;;;;5106782;28;20077;-46
2024/03/22 01:37:29;;;;;;;31.85;24.23;;;;;;;;;;5107024;28;20024;-46
2024/03/22 01:39:55;;;;;;;32.38;23.42;;;;;;;;;;5107010;28;20020;-41
2024/03/22 01:42:22;;;;;;;32.65;22.75;;;;;;;;;;5109989;27;20019;-41
2024/03/22 01:44:50;;;;;;;31.35;23.20;;;;;;;;;;5115927;28;20024;-40
2024/03/22 01:47:17;;;;;;;29.55;22.70;;;;;;;;;;5114878;27;20300;-43
2024/03/22 01:49:44;;;;;;;29.80;23.35;;;;;;;;;;5113884;28;20026;-42
2024/03/22 01:52:10;;;;;;;29.55;23.50;;;;;;;;;;5125847;28;20027;-41
2024/03/22 01:54:37;;;;;;;30.00;22.38;;;;;;;;;;5127037;28;20043;-40
2024/03/22 01:57:04;;;;;;;32.67;23.00;;;;;;;;;;5126914;28;20046;-53
2024/03/22 01:59:31;;;;;;;27.50;22.52;;;;;;;;;;5118454;28;20036;-43
2024/03/22 02:01:58;;;;;;;35.08;23.48;;;;;;;;;;5122712;28;20022;-38
2024/03/22 02:04:25;;;;;;;30.30;21.15;;;;;;;;;;5126792;28;20028;-43
2024/03/22 02:06:51;;;;;;;34.83;22.92;;;;;;;;;;5126048;28;20038;-44
2024/03/22 02:09:20;;;;;;;30.65;23.45;;;;;;;;;;5115680;28;20235;-44
2024/03/22 02:11:47;;;;;;;40.38;23.80;;;;;;;;;;5114907;28;20023;-43
2024/03/22 02:14:14;;;;;;;40.15;28.40;;;;;;;;;;5114329;28;20307;-37
2024/03/22 02:16:42;;;;;;;41.17;30.80;;;;;;;;;;5126782;28;20027;-38
2024/03/22 02:19:09;;;;;;;68.43;34.53;;;;;;;;;;5127056;28;20064;-47
2024/03/22 02:21:36;;;;;;;52.28;35.85;;;;;;;;;;5126571;28;20028;-36
2024/03/22 02:24:02;;;;;;;46.45;32.72;;;;;;;;;;5126882;28;20272;-37
2024/03/22 02:26:29;;;;;;;38.47;30.05;;;;;;;;;;5126448;28;20019;-38
2024/03/22 02:28:55;;;;;;;34.78;27.08;;;;;;;;;;5126817;28;20039;-36
2024/03/22 02:31:22;;;;;;;37.15;27.35;;;;;;;;;;5126444;28;20025;-39
2024/03/22 02:33:49;;;;;;;40.90;27.88;;;;;;;;;;5126168;28;20110;-44
2024/03/22 02:36:15;;;;;;;33.38;25.23;;;;;;;;;;5126226;28;20038;-43
2024/03/22 02:38:42;;;;;;;31.02;23.17;;;;;;;;;;5126596;28;20026;-43
2024/03/22 02:41:09;;;;;;;27.63;21.08;;;;;;;;;;5126265;28;20039;-43
2024/03/22 02:43:35;;;;;;;28.63;22.35;;;;;;;;;;5121216;28;20339;-45
2024/03/22 02:46:02;;;;;;;28.90;22.55;;;;;;;;;;5115765;28;20020;-44
2024/03/22 02:48:29;;;;;;;29.92;22.08;;;;;;;;;;5105590;28;20069;-45
2024/03/22 02:50:58;;;;;;;24.13;21.10;;;;;;;;;;5105601;28;20050;-44
2024/03/22 02:53:25;;;;;;;25.13;21.67;;;;;;;;;;5105823;28;20095;-44
2024/03/22 02:55:51;;;;;;;32.70;21.77;;;;;;;;;;5105614;28;20376;-46
2024/03/22 02:58:21;;;;;;;27.08;20.08;;;;;;;;;;5113908;28;20047;-46
2024/03/22 03:00:48;;;;;;;27.67;21.33;;;;;;;;;;5107746;28;20012;-49
2024/03/22 03:03:15;;;;;;;28.15;20.45;;;;;;;;;;5105846;28;20035;-51
2024/03/22 03:05:43;;;;;;;27.83;20.95;;;;;;;;;;5105445;28;20024;-44
2024/03/22 03:08:10;;;;;;;24.23;20.80;;;;;;;;;;5105641;28;20043;-47
2024/03/22 03:10:37;;;;;;;25.83;21.00;;;;;;;;;;5105425;28;20016;-40
2024/03/22 03:13:03;;;;;;;29.02;21.33;;;;;;;;;;5103965;28;20046;-49
2024/03/22 03:15:30;;;;;;;30.50;20.30;;;;;;;;;;5105107;28;20016;-50
2024/03/22 03:17:57;;;;;;;28.25;21.45;;;;;;;;;;5105308;28;20154;-44
2024/03/22 03:20:23;;;;;;;25.70;19.90;;;;;;;;;;5109498;28;20035;-39
2024/03/22 03:22:50;;;;;;;23.67;20.88;;;;;;;;;;5125300;28;20027;-44
2024/03/22 03:25:16;;;;;;;28.35;20.60;;;;;;;;;;5125269;28;20023;-39
2024/03/22 03:27:45;;;;;;;25.88;20.67;;;;;;;;;;5125163;28;20030;-41
2024/03/22 03:30:12;;;;;;;25.40;20.42;;;;;;;;;;5125289;28;20039;-44
2024/03/22 03:32:39;;;;;;;28.60;20.50;;;;;;;;;;5124671;28;20032;-40
2024/03/22 03:35:05;;;;;;;28.10;20.60;;;;;;;;;;5125118;28;20115;-40
2024/03/22 03:37:32;;;;;;;22.58;19.48;;;;;;;;;;5125181;28;20015;-44
2024/03/22 03:39:59;;;;;;;29.40;19.92;;;;;;;;;;5122222;28;20061;-52
2024/03/22 03:42:25;;;;;;;24.13;20.23;;;;;;;;;;5115675;28;20361;-42
2024/03/22 03:44:52;;;;;;;24.48;19.70;;;;;;;;;;5104807;28;20050;-41
2024/03/22 03:47:18;;;;;;;23.00;19.85;;;;;;;;;;5108778;28;20301;-39
2024/03/22 03:49:48;;;;;;;26.30;20.75;;;;;;;;;;5122948;28;20047;-39
2024/03/22 03:52:15;;;;;;;22.98;20.48;;;;;;;;;;5114916;28;20022;-43
2024/03/22 03:54:41;;;;;;;26.05;19.67;;;;;;;;;;5109922;28;20024;-39
2024/03/22 03:57:08;;;;;;;24.90;19.95;;;;;;;;;;5104365;28;20035;-46
2024/03/22 03:59:35;;;;;;;27.38;20.02;;;;;;;;;;5104434;28;20394;-42
2024/03/22 04:02:01;;;;;;;26.30;20.73;;;;;;;;;;5104759;28;20319;-40
2024/03/22 04:04:28;;;;;;;22.15;19.85;;;;;;;;;;5104762;28;20051;-47
2024/03/22 04:06:54;;;;;;;23.38;19.85;;;;;;;;;;5104446;28;20023;-45
2024/03/22 04:09:21;;;;;;;22.70;20.17;;;;;;;;;;5104683;28;20181;-45
2024/03/22 04:11:48;;;;;;;27.88;20.95;;;;;;;;;;5104073;28;20020;-50
2024/03/22 04:14:14;;;;;;;22.10;19.63;;;;;;;;;;5104667;28;20028;-42
2024/03/22 04:16:41;;;;;;;24.10;20.23;;;;;;;;;;5104307;28;20024;-41
2024/03/22 04:19:07;;;;;;;23.65;19.85;;;;;;;;;;5104126;28;20024;-46
2024/03/22 04:21:34;;;;;;;23.98;19.50;;;;;;;;;;5104118;28;20031;-45
2024/03/22 04:24:01;;;;;;;24.45;19.83;;;;;;;;;;5104486;28;20053;-45
2024/03/22 04:26:27;;;;;;;22.90;19.27;;;;;;;;;;5104181;28;20019;-38
2024/03/22 04:28:54;;;;;;;22.92;20.23;;;;;;;;;;5104312;28;20031;-45
2024/03/22 04:31:20;;;;;;;25.23;19.77;;;;;;;;;;5104113;28;20083;-43
2024/03/22 04:33:47;;;;;;;24.25;20.75;;;;;;;;;;5104054;28;20032;-56
2024/03/22 04:36:13;;;;;;;26.35;19.52;;;;;;;;;;5103891;28;20311;-42
2024/03/22 04:38:40;;;;;;;23.35;19.83;;;;;;;;;;5117418;28;20095;-40
2024/03/22 04:41:07;;;;;;;24.45;19.80;;;;;;;;;;5104000;28;20062;-39
2024/03/22 04:43:33;;;;;;;22.42;19.80;;;;;;;;;;5115480;28;20031;-45
2024/03/22 04:46:00;;;;;;;22.90;20.38;;;;;;;;;;5127666;28;20092;-41
2024/03/22 04:48:26;;;;;;;25.98;20.00;;;;;;;;;;5128764;28;20023;-42
2024/03/22 04:50:53;;;;;;;24.35;19.08;;;;;;;;;;5128237;28;20045;-46
2024/03/22 04:53:23;;;;;;;23.02;20.52;;;;;;;;;;5128584;28;20100;-40
2024/03/22 04:55:51;;;;;;;25.60;20.52;;;;;;;;;;5128371;28;20103;-41
2024/03/22 04:58:21;;;;;;;23.40;19.55;;;;;;;;;;5124696;28;20020;-43
2024/03/22 05:00:57;;;;;;;25.35;19.80;;;;;;;;;;5116729;28;20017;-44
2024/03/22 05:03:23;;;;;;;22.80;19.80;;;;;;;;;;5108636;28;20126;-46
2024/03/22 05:05:50;;;;;;;22.27;19.75;;;;;;;;;;5118196;28;20212;-43
2024/03/22 05:08:17;;;;;;;20.88;18.70;;;;;;;;;;5118747;28;20057;-38
2024/03/22 05:10:44;;;;;;;25.42;20.55;;;;;;;;;;5107598;28;20275;-39
2024/03/22 05:13:10;;;;;;;22.15;19.88;;;;;;;;;;5116975;28;20031;-38
2024/03/22 05:15:37;;;;;;;23.55;19.65;;;;;;;;;;5109323;28;20055;-41
2024/03/22 05:18:04;;;;;;;24.15;19.58;;;;;;;;;;5107659;28;20379;-41
2024/03/22 05:20:31;;;;;;;23.10;19.42;;;;;;;;;;5107329;28;20121;-39
2024/03/22 05:22:57;;;;;;;21.85;19.52;;;;;;;;;;5107562;28;20055;-39
2024/03/22 05:25:25;;;;;;;24.90;20.00;;;;;;;;;;5107416;28;20020;-43
2024/03/22 05:27:52;;;;;;;23.55;19.90;;;;;;;;;;5107345;28;20353;-45
2024/03/22 05:30:18;;;;;;;24.27;19.55;;;;;;;;;;5109386;28;20220;-44
2024/03/22 05:32:45;;;;;;;23.25;19.35;;;;;;;;;;5117036;28;20027;-42
2024/03/22 05:35:12;;;;;;;23.05;19.13;;;;;;;;;;5107095;28;20024;-40
2024/03/22 05:37:38;;;;;;;25.15;19.60;;;;;;;;;;5109013;28;20130;-40
2024/03/22 05:40:06;;;;;;;25.75;19.60;;;;;;;;;;5116014;28;20113;-40
2024/03/22 05:42:32;;;;;;;25.45;20.02;;;;;;;;;;5106849;28;20331;-40
2024/03/22 05:44:59;;;;;;;24.00;18.65;;;;;;;;;;5107222;28;20372;-39
2024/03/22 05:47:25;;;;;;;22.60;19.15;;;;;;;;;;5107013;28;20362;-46
2024/03/22 05:49:52;;;;;;;22.27;19.33;;;;;;;;;;5106784;28;20016;-42
2024/03/22 05:52:19;;;;;;;22.23;20.02;;;;;;;;;;5106761;28;20012;-47
2024/03/22 05:54:46;;;;;;;22.50;20.10;;;;;;;;;;5106435;28;20027;-47
2024/03/22 05:57:12;;;;;;;21.88;19.25;;;;;;;;;;5116564;28;20018;-50
2024/03/22 05:59:39;;;;;;;24.75;19.75;;;;;;;;;;5108525;28;20370;-49
2024/03/22 06:02:06;;;;;;;24.60;20.25;;;;;;;;;;5108791;28;20026;-47
2024/03/22 06:04:33;;;;;;;23.17;18.80;;;;;;;;;;5112535;28;20032;-48
2024/03/22 06:19:57;;;;;;;21.48;19.23;;;;;;;;;;5101519;27;20468;-37
2024/03/22 06:22:24;;;;;;;25.27;19.90;;;;;;;;;;5101017;28;20030;-43
2024/03/22 06:24:50;;;;;;;22.10;19.77;;;;;;;;;;5101506;28;20020;-43
2024/03/22 06:27:17;;;;;;;21.92;19.48;;;;;;;;;;5101088;28;20027;-43
2024/03/22 06:29:43;;;;;;;22.65;20.00;;;;;;;;;;5100337;28;20028;-52
2024/03/22 06:32:10;;;;;;;22.38;19.83;;;;;;;;;;5101115;28;20021;-56
2024/03/22 06:34:37;;;;;;;23.60;19.75;;;;;;;;;;5101193;28;20036;-48
2024/03/22 06:37:03;;;;;;;22.23;19.92;;;;;;;;;;5101123;28;20199;-40
2024/03/22 06:39:30;;;;;;;21.42;19.30;;;;;;;;;;5101413;28;20092;-43
2024/03/22 06:41:56;;;;;;;22.35;19.75;;;;;;;;;;5100871;28;20035;-41
2024/03/22 06:44:23;;;;;;;21.95;19.20;;;;;;;;;;5100667;28;20035;-44
2024/03/22 06:46:50;;;;;;;21.77;19.08;;;;;;;;;;5100858;28;20023;-43
2024/03/22 06:49:17;;;;;;;24.15;19.55;;;;;;;;;;5092989;28;20025;-49
2024/03/22 06:51:43;;;;;;;22.60;20.25;;;;;;;;;;5080517;28;20023;-45
2024/03/22 06:54:10;;;;;;;27.20;21.88;;;;;;;;;;5083086;28;20043;-42
2024/03/22 06:56:37;;;;;;;24.35;20.45;;;;;;;;;;5099882;28;20035;-45
2024/03/22 06:59:03;;;;;;;27.67;20.08;;;;;;;;;;5100470;28;20024;-49
2024/03/22 07:01:30;;;;;;;22.25;19.77;;;;;;;;;;5100564;28;20024;-41
2024/03/22 07:03:56;;;;;;;24.20;20.40;;;;;;;;;;5100438;28;20039;-44
2024/03/22 07:06:23;;;;;;;22.42;20.00;;;;;;;;;;5099681;28;20028;-45
2024/03/22 07:08:49;;;;;;;22.20;19.83;;;;;;;;;;5080550;28;20048;-49
2024/03/22 07:11:16;;;;;;;21.92;19.55;;;;;;;;;;5080023;28;20021;-44
2024/03/22 07:13:42;;;;;;;21.70;18.60;;;;;;;;;;5080275;28;20024;-48
2024/03/22 07:16:09;;;;;;;22.80;19.65;;;;;;;;;;5079720;28;20119;-48
2024/03/22 07:18:36;;;;;;;23.25;20.77;;;;;;;;;;5069101;28;20067;-48
2024/03/22 07:21:03;;;;;;;26.25;20.63;;;;;;;;;;5066562;28;20084;-48
2024/03/22 07:23:30;;;;;;;23.85;20.42;;;;;;;;;;5066666;28;20039;-48
2024/03/22 07:25:57;;;;;;;28.67;21.08;;;;;;;;;;5066568;28;20231;-49
2024/03/22 07:28:23;;;;;;;24.10;20.73;;;;;;;;;;5066622;28;20297;-54
2024/03/22 07:30:50;;;;;;;22.80;20.40;;;;;;;;;;5064232;28;20300;-48
2024/03/22 07:33:17;;;;;;;24.58;19.65;;;;;;;;;;5064868;28;20205;-51
2024/03/22 07:35:44;;;;;;;24.60;20.83;;;;;;;;;;5066235;28;20031;-44
2024/03/22 07:38:11;;;;;;;22.33;20.05;;;;;;;;;;5066243;28;20070;-45
2024/03/22 07:40:38;;;;;;;22.20;19.90;;;;;;;;;;5065152;28;20287;-42
2024/03/22 07:43:07;;;;;;;26.50;21.20;;;;;;;;;;5066140;28;20108;-47
2024/03/22 07:45:38;;;;;;;25.27;20.92;;;;;;;;;;5065891;28;20090;-44
2024/03/22 07:48:05;;;;;;;27.08;20.63;;;;;;;;;;5064959;28;20246;-40
2024/03/22 07:50:32;;;;;;;23.20;20.60;;;;;;;;;;5066061;28;20017;-42
2024/03/22 07:53:00;;;;;;;25.85;21.33;;;;;;;;;;5065957;28;20047;-42
2024/03/22 07:55:26;;;;;;;26.95;22.20;;;;;;;;;;5065894;28;20030;-48
2024/03/22 07:57:53;;;;;;;24.75;20.98;;;;;;;;;;5066051;28;20025;-55
2024/03/22 08:00:20;;;;;;;23.83;20.77;;;;;;;;;;5065672;28;20043;-47
2024/03/22 08:02:46;;;;;;;23.92;21.08;;;;;;;;;;5065725;28;20067;-48
2024/03/22 08:05:13;;;;;;;25.42;21.70;;;;;;;;;;5065377;28;20024;-43
2024/03/22 08:07:39;;;;;;;23.67;21.20;;;;;;;;;;5065579;28;20057;-45
2024/03/22 08:10:06;;;;;;;24.83;21.15;;;;;;;;;;5065749;28;20017;-47
2024/03/22 08:12:33;;;;;;;24.33;21.45;;;;;;;;;;5065618;28;20032;-42
2024/03/22 08:15:00;;;;;;;23.65;21.13;;;;;;;;;;5065412;28;20017;-44
2024/03/22 08:17:26;;;;;;;26.85;21.77;;;;;;;;;;5065467;28;20125;-51
2024/03/22 08:19:53;;;;;;;25.25;20.95;;;;;;;;;;5065400;28;20041;-41
2024/03/22 08:22:19;;;;;;;25.08;21.70;;;;;;;;;;5065275;28;20098;-48
2024/03/22 08:24:46;;;;;;;24.27;20.98;;;;;;;;;;5066034;28;20020;-42
2024/03/22 08:27:13;;;;;;;24.35;21.85;;;;;;;;;;5065130;28;20083;-41
2024/03/22 08:29:40;;;;;;;24.95;20.85;;;;;;;;;;5064184;28;20017;-44
2024/03/22 08:32:07;;;;;;;25.02;21.35;;;;;;;;;;5065310;28;20017;-42
2024/03/22 08:34:34;;;;;;;26.02;21.73;;;;;;;;;;5065715;28;20086;-41
2024/03/22 08:37:01;;;;;;;25.80;22.20;;;;;;;;;;5065007;28;20270;-42
2024/03/22 08:39:27;;;;;;;28.33;22.40;;;;;;;;;;5065693;28;20039;-42
2024/03/22 08:41:54;;;;;;;25.98;20.75;;;;;;;;;;5065140;28;20028;-44
2024/03/22 08:44:21;;;;;;;23.85;21.35;;;;;;;;;;5065312;28;20051;-46
2024/03/22 08:46:49;;;;;;;24.20;21.08;;;;;;;;;;5065030;28;20028;-48
2024/03/22 08:49:19;;;;;;;25.08;21.80;;;;;;;;;;5065323;28;20335;-44
2024/03/22 08:51:46;;;;;;;25.27;21.75;;;;;;;;;;5064688;28;20043;-41
2024/03/22 08:54:13;;;;;;;24.10;21.52;;;;;;;;;;5065185;28;20029;-49
2024/03/22 08:56:39;;;;;;;25.48;22.27;;;;;;;;;;5064733;28;20090;-50
2024/03/22 08:59:06;;;;;;;24.33;21.77;;;;;;;;;;5061605;28;20029;-39
2024/03/22 09:01:32;;;;;;;30.75;22.02;;;;;;;;;;5064292;28;20028;-39
2024/03/22 09:03:59;;;;;;;26.25;23.02;;;;;;;;;;5065316;28;20025;-42
2024/03/22 09:06:25;;;;;;;26.88;22.73;;;;;;;;;;5064270;28;20269;-39
2024/03/22 09:08:55;;;;;;;26.98;22.10;;;;;;;;;;5064835;28;20032;-44
2024/03/22 09:11:21;;;;;;;25.75;21.67;;;;;;;;;;5064429;28;20017;-42
2024/03/22 09:13:49;;;;;;;26.48;22.08;;;;;;;;;;5064204;28;20212;-47
2024/03/22 09:16:16;;;;;;;25.08;21.48;;;;;;;;;;5064374;28;20052;-43
2024/03/22 09:18:42;;;;;;;32.90;23.00;;;;;;;;;;5064233;28;20108;-49
2024/03/22 09:21:10;;;;;;;25.00;21.65;;;;;;;;;;5064274;28;20040;-42
2024/03/22 09:23:37;;;;;;;29.02;22.83;;;;;;;;;;5064460;28;20048;-43
2024/03/22 09:26:04;;;;;;;25.02;21.70;;;;;;;;;;5064218;28;20024;-42
2024/03/22 09:28:31;;;;;;;30.42;22.95;;;;;;;;;;5064270;28;20025;-44
2024/03/22 09:30:58;;;;;;;25.58;22.15;;;;;;;;;;5064088;28;20016;-39
2024/03/22 09:33:24;;;;;;;28.77;21.83;;;;;;;;;;5064362;28;20048;-40
2024/03/22 09:35:51;;;;;;;27.05;21.92;;;;;;;;;;5064080;28;20053;-39
2024/03/22 09:38:17;;;;;;;29.65;22.50;;;;;;;;;;5064128;28;20092;-46
2024/03/22 09:40:44;;;;;;;33.78;23.33;;;;;;;;;;5063899;28;20070;-38
2024/03/22 09:43:15;;;;;;;29.23;24.67;;;;;;;;;;5064169;28;20029;-46
2024/03/22 09:45:42;;;;;;;32.20;24.02;;;;;;;;;;5063844;28;20126;-44
2024/03/22 09:48:09;;;;;;;34.03;25.63;;;;;;;;;;5064021;28;20021;-40
2024/03/22 09:50:35;;;;;;;31.70;25.73;;;;;;;;;;5064134;28;20024;-47
2024/03/22 09:53:03;;;;;;;32.35;25.30;;;;;;;;;;5057294;28;20025;-41
2024/03/22 09:55:31;;;;;;;32.90;26.58;;;;;;;;;;5043894;28;20045;-39
2024/03/22 09:57:57;;;;;;;31.15;26.63;;;;;;;;;;5044274;28;20052;-42
2024/03/22 10:00:26;;;;;;;38.15;26.63;;;;;;;;;;5043740;28;20021;-42
2024/03/22 10:02:53;;;;;;;38.65;27.13;;;;;;;;;;5043893;28;20300;-44
2024/03/22 10:05:20;;;;;;;38.03;28.92;;;;;;;;;;5043790;28;20018;-41
2024/03/22 10:07:47;;;;;;;42.97;27.70;;;;;;;;;;5043496;28;20049;-46
2024/03/22 10:10:15;;;;;;;38.17;26.73;;;;;;;;;;5043610;28;20020;-50
2024/03/22 10:12:42;;;;;;;38.92;27.33;;;;;;;;;;5043678;28;20030;-42
2024/03/22 10:15:08;;;;;;;38.10;27.08;;;;;;;;;;5043668;28;20324;-47
2024/03/22 10:17:36;;;;;;;30.55;25.52;;;;;;;;;;5043509;28;20324;-48
2024/03/22 10:20:03;;;;;;;30.63;25.27;;;;;;;;;;5043887;28;20029;-47
2024/03/22 10:22:29;;;;;;;32.60;25.15;;;;;;;;;;5043350;28;20024;-50
2024/03/22 10:25:00;;;;;;;35.58;25.08;;;;;;;;;;5062290;28;20028;-51
2024/03/22 10:27:28;;;;;;;33.72;23.67;;;;;;;;;;5063283;28;20028;-50
2024/03/22 10:29:55;;;;;;;37.50;25.25;;;;;;;;;;5063471;28;20016;-41
2024/03/22 10:32:23;;;;;;;42.67;24.25;;;;;;;;;;5063556;28;20084;-48
2024/03/22 10:34:51;;;;;;;39.53;25.35;;;;;;;;;;5063545;28;20013;-43
2024/03/22 10:37:17;;;;;;;35.90;24.52;;;;;;;;;;5063332;28;20043;-49
2024/03/22 10:39:44;;;;;;;34.05;24.42;;;;;;;;;;5063524;28;20028;-45
2024/03/22 10:42:12;;;;;;;37.55;25.25;;;;;;;;;;5063600;28;20245;-45
2024/03/22 10:44:39;;;;;;;31.52;24.70;;;;;;;;;;5063415;28;20091;-51
2024/03/22 10:47:06;;;;;;;36.78;25.02;;;;;;;;;;5063332;28;20021;-48
2024/03/22 10:49:36;;;;;;;40.33;25.85;;;;;;;;;;5063747;28;20056;-46
2024/03/22 10:52:04;;;;;;;46.53;26.88;;;;;;;;;;5063391;28;20059;-48
2024/03/22 10:54:34;;;;;;;41.92;26.70;;;;;;;;;;5067372;28;20063;-48
2024/03/22 10:57:01;;;;;;;37.72;27.02;;;;;;;;;;5066971;28;20342;-40
2024/03/22 10:59:34;;;;;;;46.60;26.42;;;;;;;;;;5066951;28;20029;-43
2024/03/22 11:02:04;;;;;;;41.53;26.48;;;;;;;;;;5066931;28;20164;-53
2024/03/22 11:04:31;;;;;;;45.65;27.08;;;;;;;;;;5067461;28;20035;-55
2024/03/22 11:06:58;;;;;;;57.47;28.38;;;;;;;;;;5066986;28;20118;-56
2024/03/22 11:09:28;;;;;;;58.60;29.85;;;;;;;;;;5067354;28;20025;-46
2024/03/22 11:11:55;;;;;;;59.08;28.38;;;;;;;;;;5066828;28;20021;-53
2024/03/22 11:14:23;;;;;;;52.60;28.40;;;;;;;;;;5067288;28;20088;-43
2024/03/22 11:16:49;;;;;;;45.72;28.25;;;;;;;;;;5066769;28;20375;-50
2024/03/22 11:19:16;;;;;;;53.30;29.40;;;;;;;;;;5066400;28;20057;-44
2024/03/22 11:21:43;;;;;;;46.40;28.00;;;;;;;;;;5066764;28;20076;-45
2024/03/22 11:24:11;;;;;;;50.33;27.50;;;;;;;;;;5067006;28;20036;-44
2024/03/22 11:26:38;;;;;;;51.30;28.85;;;;;;;;;;5066340;28;20024;-50
2024/03/22 11:29:04;;;;;;;47.35;28.98;;;;;;;;;;5066911;28;20025;-49
2024/03/22 11:31:31;;;;;;;53.08;31.70;;;;;;;;;;5066503;28;20080;-52
2024/03/22 11:33:58;;;;;;;57.22;31.80;;;;;;;;;;5066764;28;20319;-49
2024/03/22 11:36:24;;;;;;;58.00;30.33;;;;;;;;;;5066463;28;20071;-48
2024/03/22 11:38:53;;;;;;;54.63;29.42;;;;;;;;;;5066729;28;20025;-53
2024/03/22 11:41:28;;;;;;;48.78;27.40;;;;;;;;;;5066040;28;20251;-60
2024/03/22 11:43:57;;;;;;;55.42;29.48;;;;;;;;;;5066154;28;20324;-51
2024/03/22 11:46:24;;;;;;;92.82;30.65;;;;;;;;;;5048198;28;20305;-54
2024/03/22 11:48:54;;;;;;;235.32;45.42;;;;;;;;;;5066481;28;20033;-52
2024/03/22 11:51:21;;;;;;;240.82;43.45;;;;;;;;;;5066134;28;20009;-52
2024/03/22 11:53:56;;;;;;;247.60;48.08;;;;;;;;;;5066323;28;20021;-56
2024/03/22 11:56:22;;;;;;;231.93;43.75;;;;;;;;;;5066035;28;20312;-54
2024/03/22 11:58:49;;;;;;;320.63;143.80;;;;;;;;;;5066405;28;20048;-59
2024/03/22 12:01:16;;;;;;;304.15;112.70;;;;;;;;;;5048047;28;20268;-50
2024/03/22 12:03:46;;;;;;;239.25;105.38;;;;;;;;;;5066016;28;20025;-43
2024/03/22 12:06:14;;;;;;;402.38;90.55;;;;;;;;;;5065782;28;20024;-40
2024/03/22 12:08:41;;;;;;;423.55;214.13;;;;;;;;;;5065783;28;20033;-40
2024/03/22 12:11:08;;;;;;;310.52;127.15;;;;;;;;;;5065768;28;20021;-39
2024/03/22 12:13:35;;;;;;;296.88;139.20;;;;;;;;;;5065907;28;20300;-42
2024/03/22 12:16:02;;;;;;;246.45;90.78;;;;;;;;;;5065500;28;20316;-42
2024/03/22 12:18:28;;;;;;;255.68;101.03;;;;;;;;;;5065664;28;20249;-43
2024/03/22 12:20:55;;;;;;;197.13;83.00;;;;;;;;;;5065823;28;20029;-44
2024/03/22 12:23:22;;;;;;;159.95;67.97;;;;;;;;;;5065489;28;20029;-43
2024/03/22 12:25:48;;;;;;;128.73;53.83;;;;;;;;;;5065677;28;20023;-50
2024/03/22 12:28:15;;;;;;;85.85;42.35;;;;;;;;;;5065512;28;20218;-51
2024/03/22 12:30:42;;;;;;;73.40;38.25;;;;;;;;;;5065303;28;20013;-51
2024/03/22 12:33:10;;;;;;;67.57;35.40;;;;;;;;;;5065616;28;20032;-46
2024/03/22 12:35:40;;;;;;;53.35;31.23;;;;;;;;;;5065471;28;20054;-47
2024/03/22 12:38:10;;;;;;;56.47;31.38;;;;;;;;;;5065336;28;20208;-45
2024/03/22 12:40:37;;;;;;;44.42;27.70;;;;;;;;;;5047613;28;20024;-43
2024/03/22 12:43:04;;;;;;;37.80;25.98;;;;;;;;;;5065629;28;20025;-46
2024/03/22 12:45:32;;;;;;;34.90;25.63;;;;;;;;;;5065149;28;20013;-42
2024/03/22 12:47:59;;;;;;;36.85;24.48;;;;;;;;;;5065557;28;20315;-42
2024/03/22 12:50:25;;;;;;;42.70;24.80;;;;;;;;;;5065037;28;20048;-39
2024/03/22 12:52:52;;;;;;;38.20;24.40;;;;;;;;;;5065172;28;20025;-37
2024/03/22 12:55:19;;;;;;;35.80;24.33;;;;;;;;;;5065265;28;20324;-41
2024/03/22 12:57:46;;;;;;;63.83;25.30;;;;;;;;;;5047133;28;20104;-36
2024/03/22 13:00:13;;;;;;;88.22;27.33;;;;;;;;;;5064718;28;20032;-41
2024/03/22 13:02:40;;;;;;;84.20;26.35;;;;;;;;;;5064797;28;20151;-43
2024/03/22 13:05:07;;;;;;;62.00;24.88;;;;;;;;;;5064840;28;20021;-43
2024/03/22 13:07:34;;;;;;;51.45;23.15;;;;;;;;;;5046635;28;20029;-44
2024/03/22 13:10:01;;;;;;;51.13;22.33;;;;;;;;;;5064663;28;20042;-43
2024/03/22 13:12:28;;;;;;;44.22;23.10;;;;;;;;;;5064455;28;20041;-38
2024/03/22 13:14:55;;;;;;;52.83;22.38;;;;;;;;;;5064182;28;20021;-40
2024/03/22 13:17:22;;;;;;;35.25;21.92;;;;;;;;;;5064185;28;20020;-39
2024/03/22 13:19:49;;;;;;;33.45;22.20;;;;;;;;;;5064250;28;20086;-49
2024/03/22 13:22:18;;;;;;;30.67;21.67;;;;;;;;;;5064408;28;20316;-46
2024/03/22 13:24:47;;;;;;;34.97;22.67;;;;;;;;;;5064629;28;20471;-44
2024/03/22 13:27:14;;;;;;;29.75;21.30;;;;;;;;;;5064243;28;20084;-42
2024/03/22 13:29:41;;;;;;;34.13;21.58;;;;;;;;;;5064115;28;20024;-39
2024/03/22 13:32:08;;;;;;;27.92;22.13;;;;;;;;;;5064226;28;20304;-46
2024/03/22 13:34:38;;;;;;;27.50;21.50;;;;;;;;;;5064634;28;20055;-41
2024/03/22 13:37:06;;;;;;;32.78;20.92;;;;;;;;;;5063957;28;20028;-38
2024/03/22 13:39:33;;;;;;;34.70;21.92;;;;;;;;;;5064619;28;20036;-47
2024/03/22 13:41:59;;;;;;;28.02;22.23;;;;;;;;;;5064216;28;20024;-40
2024/03/22 13:44:26;;;;;;;25.30;21.60;;;;;;;;;;5064323;28;20033;-43
2024/03/22 13:46:52;;;;;;;32.88;21.38;;;;;;;;;;5063885;28;20028;-42
2024/03/22 13:49:23;;;;;;;32.17;22.15;;;;;;;;;;5065000;28;20205;-48
2024/03/22 13:51:50;;;;;;;27.63;22.30;;;;;;;;;;5064370;28;20016;-47
2024/03/22 13:54:17;;;;;;;28.48;21.83;;;;;;;;;;5065035;28;20056;-47
2024/03/22 13:56:43;;;;;;;29.52;22.30;;;;;;;;;;5064334;28;20032;-44
2024/03/22 13:59:11;;;;;;;26.98;21.05;;;;;;;;;;5064402;28;20029;-48
2024/03/22 14:01:41;;;;;;;33.65;21.88;;;;;;;;;;5064020;28;20066;-45
2024/03/22 14:04:10;;;;;;;27.17;21.00;;;;;;;;;;5064378;28;20220;-50
2024/03/22 14:06:37;;;;;;;24.27;19.95;;;;;;;;;;5063611;28;20376;-41
2024/03/22 14:09:04;;;;;;;32.40;21.42;;;;;;;;;;5064585;28;20088;-45
2024/03/22 14:11:32;;;;;;;26.80;21.08;;;;;;;;;;5063995;28;20024;-47
2024/03/22 14:13:59;;;;;;;25.60;20.45;;;;;;;;;;5064008;28;20044;-47
2024/03/22 14:16:26;;;;;;;25.20;21.08;;;;;;;;;;5063856;28;20338;-46
2024/03/22 14:18:52;;;;;;;25.45;21.13;;;;;;;;;;5063622;28;20049;-48
2024/03/22 14:21:20;;;;;;;26.33;20.10;;;;;;;;;;5064012;28;20099;-60
2024/03/22 14:23:49;;;;;;;28.23;21.02;;;;;;;;;;5064646;28;20028;-50
2024/03/22 14:26:19;;;;;;;27.00;21.17;;;;;;;;;;5064100;28;20031;-49
2024/03/22 14:28:47;;;;;;;27.45;21.13;;;;;;;;;;5066902;28;20354;-49